Time;durP1;ratioP1;P1;durP2;ratioP2;P2;SDS_P1;SDS_P2;PMS_P1;PMS_P2;Temp;Humidity;BMP_temperature;BMP_pressure;BME280_temperature;BME280_humidity;BME280_pressure;Samples;Min_cycle;Max_cycle;Signal;HPM_P1;HPM_P2
2023/03/28 00:01:06;;;;;;;33.20;18.80;;;;;;;-2.19;100.00;98688.31;108974;1254;64409;-72
2023/03/28 00:03:35;;;;;;;31.80;16.00;;;;;;;-2.18;100.00;98688.98;108583;1254;1002537;-72
2023/03/28 00:06:04;;;;;;;25.80;14.60;;;;;;;-2.15;100.00;98686.83;108569;1254;1003001;-72
2023/03/28 00:08:31;;;;;;;23.20;14.80;;;;;;;-2.15;100.00;98687.18;109347;1254;66069;-71
2023/03/28 00:11:18;;;;;;;28.80;15.50;;;;;;;-2.15;100.00;98691.17;109363;1254;58968;-73
2023/03/28 00:13:56;;;;;;;28.30;13.70;;;;;;;-2.17;100.00;98688.95;109327;1254;64833;-71
2023/03/28 00:16:30;;;;;;;22.30;12.70;;;;;;;-2.18;100.00;98687.44;109036;1254;58364;-72
2023/03/28 00:19:04;;;;;;;24.80;12.90;;;;;;;-2.20;100.00;98686.77;109345;1254;57950;-71
2023/03/28 00:21:32;;;;;;;;;;;;;;;-2.22;100.00;98683.84;109351;1254;65598;-72
2023/03/28 00:24:03;;;;;;;28.30;14.00;;;;;;;-2.25;100.00;98683.73;109405;1254;61221;-72
2023/03/28 00:26:33;;;;;;;26.60;13.50;;;;;;;-2.28;100.00;98683.27;109345;1254;65195;-71
2023/03/28 00:29:00;;;;;;;;;;;;;;;-2.32;100.00;98684.90;109373;1254;57350;-72
2023/03/28 00:31:28;;;;;;;46.80;18.80;;;;;;;-2.35;100.00;98684.95;109105;1254;58370;-71
2023/03/28 00:33:56;;;;;;;49.90;19.10;;;;;;;-2.37;100.00;98681.55;109032;1254;64939;-71
2023/03/28 00:36:28;;;;;;;40.30;18.50;;;;;;;-2.39;100.00;98682.28;109370;1255;61167;-71
2023/03/28 00:38:56;;;;;;;44.40;18.80;;;;;;;-2.42;100.00;98682.84;109374;1256;64204;-71
2023/03/28 00:41:25;;;;;;;35.90;17.10;;;;;;;-2.43;100.00;98681.30;109342;1257;57686;-72
2023/03/28 00:43:53;;;;;;;30.30;17.00;;;;;;;-2.46;100.00;98683.43;109340;1256;57534;-72
2023/03/28 00:46:25;;;;;;;36.20;18.80;;;;;;;-2.48;100.00;98686.42;109624;1250;65537;-71
2023/03/28 00:48:56;;;;;;;40.20;19.00;;;;;;;-2.49;100.00;98687.85;109612;1250;59706;-71
2023/03/28 00:51:30;;;;;;;33.50;18.30;;;;;;;-2.51;100.00;98688.77;108864;1250;1002579;-71
2023/03/28 00:53:59;;;;;;;29.50;17.40;;;;;;;-2.53;100.00;98689.69;109551;1251;57334;-72
2023/03/28 00:56:31;;;;;;;25.90;17.20;;;;;;;-2.57;100.00;98692.72;109632;1250;57591;-72
2023/03/28 00:59:01;;;;;;;31.20;19.10;;;;;;;-2.60;100.00;98692.23;109611;1250;65385;-72
2023/03/28 01:01:28;;;;;;;34.80;20.10;;;;;;;-2.63;100.00;98690.39;109617;1250;61244;-71
2023/03/28 01:04:03;;;;;;;32.70;17.50;;;;;;;-2.66;100.00;98690.27;109301;1251;63978;-71
2023/03/28 01:06:39;;;;;;;41.20;20.90;;;;;;;-2.67;100.00;98692.89;109276;1251;57440;-71
2023/03/28 01:09:07;;;;;;;38.80;19.80;;;;;;;-2.66;100.00;98695.31;109592;1251;57388;-72
2023/03/28 01:11:37;;;;;;;33.80;18.40;;;;;;;-2.64;100.00;98695.09;109583;1250;65361;-72
2023/03/28 01:14:06;;;;;;;36.00;18.70;;;;;;;-2.63;100.00;98698.03;109593;1251;59863;-71
2023/03/28 01:16:32;;;;;;;32.20;16.30;;;;;;;-2.62;100.00;98690.73;109638;1251;62944;-70
2023/03/28 01:19:01;;;;;;;30.90;16.20;;;;;;;-2.61;100.00;98688.09;109580;1250;58149;-71
2023/03/28 01:21:41;;;;;;;34.00;17.50;;;;;;;-2.61;100.00;98687.91;109649;1251;58232;-70
2023/03/28 01:24:16;;;;;;;31.80;18.20;;;;;;;-2.62;100.00;98690.71;109601;1251;75118;-71
2023/03/28 01:27:01;;;;;;;33.10;19.40;;;;;;;-2.61;100.00;98694.16;109599;1251;60701;-71
2023/03/28 01:29:40;;;;;;;32.60;17.00;;;;;;;-2.62;100.00;98695.58;109584;1251;63701;-71
2023/03/28 01:32:44;;;;;;;30.50;18.50;;;;;;;-2.62;100.00;98694.02;109555;1250;58196;-70
2023/03/28 01:35:48;;;;;;;36.40;17.70;;;;;;;-2.64;100.00;98691.62;109587;1250;58200;-71
2023/03/28 01:38:35;;;;;;;26.30;16.80;;;;;;;-2.65;100.00;98692.52;108896;1251;1002260;-71
2023/03/28 01:41:11;;;;;;;33.70;16.10;;;;;;;-2.66;100.00;98691.48;108647;1251;1002161;-71
2023/03/28 01:43:51;;;;;;;31.40;16.70;;;;;;;-2.67;100.00;98688.36;109594;1251;64753;-70
2023/03/28 01:46:37;;;;;;;27.60;15.80;;;;;;;-2.69;100.00;98688.03;108807;1251;1002300;-71
2023/03/28 01:49:12;;;;;;;35.40;18.60;;;;;;;-2.70;100.00;98684.95;109575;1250;58133;-71
2023/03/28 01:51:47;;;;;;;36.40;17.30;;;;;;;-2.71;100.00;98682.71;109605;1250;65873;-71
2023/03/28 01:54:34;;;;;;;25.70;15.90;;;;;;;-2.71;100.00;98683.76;109586;1250;59731;-70
2023/03/28 01:57:12;;;;;;;28.40;15.50;;;;;;;-2.70;100.00;98689.12;109564;1250;72734;-71
2023/03/28 01:59:46;;;;;;;31.80;16.80;;;;;;;-2.69;100.00;98689.80;109588;1250;58182;-71
2023/03/28 02:02:31;;;;;;;28.00;16.50;;;;;;;-2.65;100.00;98688.86;109591;1250;58153;-71
2023/03/28 02:05:03;;;;;;;29.90;16.80;;;;;;;-2.59;100.00;98685.63;108802;1254;1002691;-71
2023/03/28 02:07:32;;;;;;;34.80;18.90;;;;;;;-2.52;100.00;98689.66;109396;1251;60142;-72
2023/03/28 02:10:01;;;;;;;35.00;18.10;;;;;;;-2.44;100.00;98689.49;109512;1253;72654;-71
2023/03/28 02:12:35;;;;;;;31.40;17.80;;;;;;;-2.35;100.00;98684.80;109545;1252;58230;-71
2023/03/28 02:15:05;;;;;;;28.00;17.00;;;;;;;-2.26;100.00;98682.69;108869;1252;1003186;-72
2023/03/28 02:17:38;;;;;;;25.50;16.20;;;;;;;-2.16;100.00;98681.98;109257;1252;66420;-71
2023/03/28 02:20:10;;;;;;;27.60;17.00;;;;;;;-2.07;100.00;98678.48;109560;1252;60238;-72
2023/03/28 02:22:53;;;;;;;26.30;16.90;;;;;;;-1.99;100.00;98678.48;109511;1252;64697;-71
2023/03/28 02:25:20;;;;;;;29.00;16.60;;;;;;;-1.90;100.00;98676.20;109502;1253;58149;-71
2023/03/28 02:27:51;;;;;;;20.60;14.30;;;;;;;-1.82;100.00;98675.51;109555;1254;58238;-71
2023/03/28 02:30:20;;;;;;;25.60;15.80;;;;;;;-1.75;100.00;98673.61;109284;1253;65317;-71
2023/03/28 02:32:49;;;;;;;23.30;15.80;;;;;;;-1.69;100.00;98672.45;109563;1254;61012;-71
2023/03/28 02:35:20;;;;;;;22.20;14.50;;;;;;;-1.64;100.00;98666.40;109561;1252;64166;-71
2023/03/28 02:38:13;;;;;;;23.80;14.40;;;;;;;-1.61;100.00;98663.01;109524;1254;58108;-71
2023/03/28 02:41:26;;;;;;;23.70;13.80;;;;;;;-1.59;100.00;98665.92;109566;1252;58317;-72
2023/03/28 02:44:30;;;;;;;22.70;13.20;;;;;;;-1.58;100.00;98664.68;109555;1252;66392;-71
2023/03/28 02:47:25;;;;;;;23.20;13.80;;;;;;;-1.57;100.00;98665.35;109023;1259;61144;-72
2023/03/28 02:49:54;;;;;;;22.20;13.80;;;;;;;-1.56;100.00;98663.41;108863;1258;64813;-71
2023/03/28 02:52:36;;;;;;;19.40;12.90;;;;;;;-1.53;100.00;98661.61;108949;1260;58646;-71
2023/03/28 02:55:22;;;;;;;20.90;12.50;;;;;;;-1.48;100.00;98662.20;108966;1258;59161;-72
2023/03/28 02:57:54;;;;;;;21.00;11.90;;;;;;;-1.43;100.00;98658.56;108946;1262;65315;-71
2023/03/28 03:00:21;;;;;;;17.70;13.10;;;;;;;-1.36;100.00;98654.58;108982;1259;59754;-71
2023/03/28 03:02:50;;;;;;;22.50;13.00;;;;;;;-1.29;100.00;98654.08;108945;1260;64738;-71
2023/03/28 03:05:21;;;;;;;20.70;13.50;;;;;;;-1.24;100.00;98654.63;108858;1259;58222;-71
2023/03/28 03:07:49;;;;;;;21.10;12.80;;;;;;;-1.19;100.00;98653.46;108955;1259;58239;-71
2023/03/28 03:10:17;;;;;;;20.00;12.50;;;;;;;-1.14;100.00;98655.77;108968;1259;64858;-71
2023/03/28 03:12:44;;;;;;;20.00;11.80;;;;;;;-1.09;100.00;98654.95;108957;1258;58777;-71
2023/03/28 03:15:11;;;;;;;16.90;11.00;;;;;;;-1.04;100.00;98653.61;108077;1259;1002286;-71
2023/03/28 03:17:37;;;;;;;18.60;12.10;;;;;;;-1.00;100.00;98654.54;108897;1259;58274;-72
2023/03/28 03:20:06;;;;;;;20.40;12.40;;;;;;;-0.97;100.00;98653.94;108938;1259;58130;-72
2023/03/28 03:22:33;;;;;;;16.30;12.80;;;;;;;-0.94;100.00;98651.77;108970;1260;64844;-71
2023/03/28 03:25:06;;;;;;;17.60;13.20;;;;;;;-0.91;100.00;98655.34;109538;1254;60069;-71
2023/03/28 03:27:35;;;;;;;20.50;13.40;;;;;;;-0.87;100.00;98650.55;109501;1253;63673;-72
2023/03/28 03:30:03;;;;;;;18.10;11.50;;;;;;;-0.85;100.00;98648.39;109504;1254;58175;-70
2023/03/28 03:32:30;;;;;;;18.90;11.10;;;;;;;-0.81;100.00;98649.72;109532;1253;58268;-70
2023/03/28 03:34:57;;;;;;;16.10;11.10;;;;;;;-0.78;100.00;98651.17;109536;1254;65441;-71
2023/03/28 03:37:25;;;;;;;12.90;9.90;;;;;;;-0.74;100.00;98651.95;109504;1253;60744;-71
2023/03/28 03:39:52;;;;;;;16.50;11.30;;;;;;;-0.71;100.00;98650.45;109514;1253;65267;-71
2023/03/28 03:42:19;;;;;;;13.20;8.80;;;;;;;-0.69;100.00;98651.11;109507;1253;58382;-71
2023/03/28 03:44:45;;;;;;;18.30;12.00;;;;;;;-0.65;100.00;98648.76;109551;1254;58364;-70
2023/03/28 03:47:12;;;;;;;23.10;15.70;;;;;;;-0.63;100.00;98647.99;109214;1254;65038;-72
2023/03/28 03:49:39;;;;;;;18.40;13.90;;;;;;;-0.60;100.00;98647.56;109503;1253;60443;-71
2023/03/28 03:52:06;;;;;;;15.50;11.20;;;;;;;-0.57;100.00;98644.88;109467;1254;63778;-71
2023/03/28 03:54:32;;;;;;;15.70;10.30;;;;;;;-0.56;100.00;98648.14;109497;1254;58394;-71
2023/03/28 03:57:00;;;;;;;13.90;10.10;;;;;;;-0.56;100.00;98643.25;109515;1252;58555;-71
2023/03/28 03:59:27;;;;;;;14.40;9.30;;;;;;;-0.57;100.00;98641.71;109555;1254;66054;-72
2023/03/28 04:01:54;;;;;;;10.80;8.60;;;;;;;-0.58;100.00;98642.63;109241;1253;61084;-72
2023/03/28 04:04:21;;;;;;;12.30;8.60;;;;;;;-0.59;100.00;98643.35;109494;1254;65225;-72
2023/03/28 04:06:48;;;;;;;13.80;9.00;;;;;;;-0.59;100.00;98648.05;109319;1259;58284;-72
2023/03/28 04:09:15;;;;;;;13.50;8.60;;;;;;;-0.57;100.00;98647.81;109613;1251;58141;-72
2023/03/28 04:11:42;;;;;;;11.30;8.50;;;;;;;-0.54;100.00;98649.46;109282;1250;64965;-71
2023/03/28 04:14:09;;;;;;;13.90;8.60;;;;;;;-0.50;100.00;98642.75;108894;1251;1002743;-70
2023/03/28 04:16:36;;;;;;;14.10;10.00;;;;;;;-0.48;100.00;98642.34;109615;1250;64959;-71
2023/03/28 04:19:03;;;;;;;12.30;8.70;;;;;;;-0.46;100.00;98641.92;109605;1251;58141;-70
2023/03/28 04:21:31;;;;;;;15.40;9.50;;;;;;;-0.45;100.00;98641.55;109605;1250;58134;-70
2023/03/28 04:24:00;;;;;;;12.10;10.50;;;;;;;-0.42;100.00;98638.88;109586;1251;65240;-71
2023/03/28 04:26:28;;;;;;;17.60;12.50;;;;;;;-0.40;100.00;98647.88;109629;1251;59992;-71
2023/03/28 04:28:55;;;;;;;18.80;13.90;;;;;;;-0.38;100.00;98648.17;109598;1251;63757;-71
2023/03/28 04:31:28;;;;;;;20.00;14.10;;;;;;;-0.35;100.00;98642.16;109591;1251;58113;-71
2023/03/28 04:33:55;;;;;;;21.00;15.50;;;;;;;-0.33;100.00;98643.65;109546;1251;58193;-72
2023/03/28 04:36:24;;;;;;;22.30;14.10;;;;;;;-0.31;100.00;98641.70;109616;1251;66141;-72
2023/03/28 04:38:51;;;;;;;26.00;15.10;;;;;;;-0.29;100.00;98647.38;109677;1250;61375;-72
2023/03/28 04:41:18;;;;;;;30.00;18.40;;;;;;;-0.27;100.00;98646.42;109555;1251;64114;-71
2023/03/28 04:43:44;;;;;;;25.30;15.90;;;;;;;-0.23;100.00;98647.56;109604;1251;58391;-72
2023/03/28 04:46:11;;;;;;;20.80;12.80;;;;;;;-0.20;100.00;98644.15;109649;1251;58061;-71
2023/03/28 04:48:38;;;;;;;15.80;11.50;;;;;;;-0.16;100.00;98643.70;109547;1251;66021;-71
2023/03/28 04:51:05;;;;;;;19.10;12.80;;;;;;;-0.13;100.00;98646.41;109584;1251;60163;-71
2023/03/28 04:53:31;;;;;;;15.60;11.40;;;;;;;-0.10;100.00;98647.73;109625;1250;64266;-72
2023/03/28 04:55:58;;;;;;;22.80;14.00;;;;;;;-0.08;100.00;98650.27;109607;1251;59088;-72
2023/03/28 04:58:25;;;;;;;22.90;15.10;;;;;;;-0.05;100.00;98654.02;109396;1252;58238;-71
2023/03/28 05:00:52;;;;;;;18.30;12.80;;;;;;;0.01;100.00;98649.67;109626;1250;65215;-72
2023/03/28 05:03:21;;;;;;;13.70;11.40;;;;;;;0.05;100.00;98641.32;109573;1256;60457;-71
2023/03/28 05:05:51;;;;;;;12.00;10.50;;;;;;;0.08;100.00;98648.56;109571;1251;65332;-71
2023/03/28 05:08:21;;;;;;;16.00;11.70;;;;;;;0.08;100.00;98649.61;109570;1251;58202;-71
2023/03/28 05:10:49;;;;;;;13.80;11.40;;;;;;;0.08;100.00;98642.98;109605;1251;58302;-71
2023/03/28 05:13:16;;;;;;;12.60;9.10;;;;;;;0.10;100.00;98644.66;109605;1254;65885;-71
2023/03/28 05:15:45;;;;;;;12.40;10.00;;;;;;;0.11;100.00;98641.65;109602;1251;60900;-71
2023/03/28 05:18:13;;;;;;;12.80;10.00;;;;;;;0.13;100.00;98641.27;109623;1251;64989;-71
2023/03/28 05:20:40;;;;;;;15.50;10.90;;;;;;;0.12;100.00;98642.49;109554;1251;58419;-71
2023/03/28 05:23:07;;;;;;;16.00;11.70;;;;;;;0.13;100.00;98648.61;109581;1250;58239;-71
2023/03/28 05:25:34;;;;;;;15.50;9.80;;;;;;;0.14;100.00;98651.17;109612;1251;66278;-71
2023/03/28 05:28:00;;;;;;;14.20;11.10;;;;;;;0.17;100.00;98651.45;109579;1251;60037;-72
2023/03/28 05:30:27;;;;;;;19.00;12.70;;;;;;;0.19;100.00;98649.62;109631;1251;65204;-72
2023/03/28 05:32:54;;;;;;;12.00;9.00;;;;;;;0.22;100.00;98657.21;109600;1250;58119;-72
2023/03/28 05:35:21;;;;;;;12.60;8.40;;;;;;;0.28;100.00;98657.04;109632;1251;58328;-71
2023/03/28 05:37:48;;;;;;;10.80;9.70;;;;;;;0.35;100.00;98659.27;109617;1250;65961;-72
2023/03/28 05:40:15;;;;;;;12.40;9.30;;;;;;;0.48;100.00;98662.03;109413;1251;59812;-70
2023/03/28 05:42:42;;;;;;;12.40;8.20;;;;;;;0.62;100.00;98659.80;109616;1250;65236;-72
2023/03/28 05:45:11;;;;;;;12.30;10.50;;;;;;;0.98;100.00;98657.96;109606;1251;58148;-73
2023/03/28 05:47:38;;;;;;;12.80;9.90;;;;;;;1.45;100.00;98654.41;109641;1250;58218;-71
2023/03/28 05:50:05;;;;;;;13.10;10.50;;;;;;;1.64;100.00;98659.48;109597;1251;66551;-72
2023/03/28 05:52:32;;;;;;;12.30;10.30;;;;;;;1.79;100.00;98660.88;109653;1251;60122;-72
2023/03/28 05:54:58;;;;;;;14.30;10.90;;;;;;;1.97;100.00;98661.42;109643;1251;64342;-72
2023/03/28 05:57:25;;;;;;;12.00;10.30;;;;;;;2.35;100.00;98661.73;109606;1250;58195;-72
2023/03/28 05:59:52;;;;;;;11.80;9.50;;;;;;;2.53;100.00;98661.03;109603;1251;58059;-72
2023/03/28 06:02:20;;;;;;;11.70;9.40;;;;;;;2.66;100.00;98666.45;109582;1251;66313;-73
2023/03/28 06:04:47;;;;;;;12.30;9.40;;;;;;;2.65;100.00;98668.78;109617;1251;59229;-72
2023/03/28 06:07:14;;;;;;;10.90;9.00;;;;;;;2.55;100.00;98669.90;109614;1251;65218;-71
2023/03/28 06:09:41;;;;;;;13.00;10.00;;;;;;;2.40;100.00;98671.19;109482;1251;58291;-71
2023/03/28 06:12:10;;;;;;;11.70;10.20;;;;;;;2.30;100.00;98675.06;109629;1251;59054;-70
2023/03/28 06:14:37;;;;;;;10.70;9.60;;;;;;;2.35;100.00;98675.77;109630;1250;64913;-71
2023/03/28 06:17:04;;;;;;;14.10;11.50;;;;;;;2.40;100.00;98677.13;109340;1251;60863;-72
2023/03/28 06:19:31;;;;;;;13.30;10.50;;;;;;;2.45;100.00;98677.83;109607;1251;64811;-72
2023/03/28 06:21:57;;;;;;;14.10;11.40;;;;;;;2.47;100.00;98678.81;109630;1251;58331;-72
2023/03/28 06:24:24;;;;;;;15.70;11.10;;;;;;;2.30;100.00;98679.11;109617;1251;58363;-71
2023/03/28 06:26:51;;;;;;;13.30;11.40;;;;;;;2.02;100.00;98684.36;109612;1251;65094;-72
2023/03/28 06:29:18;;;;;;;13.00;10.50;;;;;;;1.78;100.00;98684.21;109282;1251;59798;-71
2023/03/28 06:31:45;;;;;;;13.70;11.50;;;;;;;1.59;100.00;98683.83;109640;1250;64900;-71
2023/03/28 06:34:12;;;;;;;11.90;9.90;;;;;;;1.57;100.00;98688.30;109610;1251;58509;-72
2023/03/28 06:36:38;;;;;;;11.40;9.40;;;;;;;1.69;100.00;98682.76;109382;1251;58174;-72
2023/03/28 06:39:05;;;;;;;10.90;8.40;;;;;;;1.90;100.00;98684.82;109643;1251;66439;-72
2023/03/28 06:41:31;;;;;;;10.10;8.30;;;;;;;2.12;100.00;98685.06;109618;1251;60871;-71
2023/03/28 06:43:58;;;;;;;10.90;8.80;;;;;;;2.17;100.00;98689.05;109350;1251;64573;-72
2023/03/28 06:46:25;;;;;;;8.70;6.90;;;;;;;2.08;100.00;98690.81;108822;1251;1002974;-72
2023/03/28 06:48:51;;;;;;;10.60;7.30;;;;;;;1.92;100.00;98692.62;109610;1251;58216;-72
2023/03/28 06:51:18;;;;;;;8.10;7.00;;;;;;;1.78;100.00;98692.25;109619;1251;66347;-72
2023/03/28 06:53:45;;;;;;;7.10;6.40;;;;;;;1.69;100.00;98694.13;109678;1251;60727;-73
2023/03/28 06:56:11;;;;;;;8.90;6.90;;;;;;;1.64;100.00;98699.05;109647;1250;64709;-73
2023/03/28 06:58:38;;;;;;;8.50;7.20;;;;;;;1.60;100.00;98703.59;109621;1251;58227;-72
2023/03/28 07:01:05;;;;;;;8.50;6.40;;;;;;;1.58;100.00;98703.99;109643;1250;58140;-71
2023/03/28 07:03:32;;;;;;;8.90;7.20;;;;;;;1.59;100.00;98703.65;109625;1251;65149;-72
2023/03/28 07:06:06;;;;;;;7.10;6.30;;;;;;;1.55;100.00;98710.27;109555;1251;60711;-72
2023/03/28 07:08:33;;;;;;;9.40;6.50;;;;;;;1.41;100.00;98725.25;109626;1251;63693;-72
2023/03/28 07:11:00;;;;;;;6.50;5.30;;;;;;;1.27;100.00;98751.45;109619;1251;58314;-73
2023/03/28 07:13:27;;;;;;;4.50;3.90;;;;;;;1.00;100.00;98763.87;109297;1251;58228;-72
2023/03/28 07:16:04;;;;;;;4.40;3.70;;;;;;;0.61;100.00;98759.48;109621;1251;65926;-79
2023/03/28 07:18:31;;;;;;;5.40;4.10;;;;;;;0.34;100.00;98762.75;109663;1251;60053;-74
2023/03/28 07:20:58;;;;;;;6.50;4.20;;;;;;;0.26;100.00;98764.73;109614;1251;64255;-74
2023/03/28 07:23:24;;;;;;;4.40;3.90;;;;;;;0.19;100.00;98774.35;109559;1251;58187;-75
2023/03/28 07:25:51;;;;;;;4.90;4.40;;;;;;;0.11;100.00;98783.51;109386;1251;58214;-74
2023/03/28 07:28:18;;;;;;;4.20;3.10;;;;;;;0.09;100.00;98780.23;109629;1251;64853;-75
2023/03/28 07:30:45;;;;;;;5.30;3.70;;;;;;;0.05;100.00;98784.38;106558;1251;1002903;-74
2023/03/28 07:33:11;;;;;;;3.90;3.50;;;;;;;0.03;100.00;98787.74;109659;1251;65088;-75
2023/03/28 07:35:39;;;;;;;4.50;4.10;;;;;;;0.03;100.00;98789.66;109660;1251;58231;-74
2023/03/28 07:38:06;;;;;;;4.00;3.60;;;;;;;-0.01;100.00;98787.34;109262;1250;58230;-74
2023/03/28 07:40:33;;;;;;;5.00;4.50;;;;;;;0.02;100.00;98795.28;109644;1250;64823;-75
2023/03/28 07:43:00;;;;;;;5.30;4.20;;;;;;;0.07;100.00;98796.89;109682;1250;60667;-74
2023/03/28 07:45:27;;;;;;;5.20;4.70;;;;;;;0.03;100.00;98804.32;109358;1251;65174;-75
2023/03/28 07:47:53;;;;;;;5.70;5.10;;;;;;;0.02;100.00;98798.77;109620;1250;58213;-74
2023/03/28 07:50:21;;;;;;;6.60;5.50;;;;;;;0.14;100.00;98800.54;109652;1251;58250;-74
2023/03/28 07:52:48;;;;;;;6.10;5.30;;;;;;;0.28;100.00;98807.46;109643;1250;65222;-74
2023/03/28 07:55:15;;;;;;;7.50;6.80;;;;;;;0.41;100.00;98811.48;109626;1250;61220;-73
2023/03/28 07:57:44;;;;;;;7.40;6.20;;;;;;;0.46;100.00;98819.38;109611;1251;65196;-73
2023/03/28 08:00:11;;;;;;;7.30;6.70;;;;;;;0.47;100.00;98820.76;109269;1251;58290;-74
2023/03/28 08:02:42;;;;;;;7.80;6.10;;;;;;;0.42;100.00;98826.82;109651;1250;58296;-74
2023/03/28 08:05:08;;;;;;;;;;;;;;;0.39;100.00;98837.22;109682;1250;65972;-74
2023/03/28 08:07:35;;;;;;;8.80;6.80;;;;;;;0.43;100.00;98838.67;109582;1250;60133;-73
2023/03/28 08:10:02;;;;;;;12.10;7.10;;;;;;;0.60;100.00;98839.42;109628;1250;65120;-73
2023/03/28 08:12:29;;;;;;;7.20;6.00;;;;;;;0.81;100.00;98848.40;109579;1250;58063;-73
2023/03/28 08:14:56;;;;;;;7.50;6.10;;;;;;;0.99;100.00;98848.73;109677;1250;58135;-67
2023/03/28 08:17:22;;;;;;;9.40;6.30;;;;;;;1.22;100.00;98847.16;109665;1250;65953;-68
2023/03/28 08:19:49;;;;;;;7.80;6.80;;;;;;;1.45;100.00;98845.20;109657;1250;60837;-68
2023/03/28 08:22:16;;;;;;;13.70;8.60;;;;;;;1.61;100.00;98849.23;109631;1250;63674;-68
2023/03/28 08:24:43;;;;;;;9.20;6.70;;;;;;;1.89;100.00;98848.13;109667;1250;58148;-68
2023/03/28 08:27:09;;;;;;;9.20;6.10;;;;;;;2.02;100.00;98846.81;109609;1250;58238;-68
2023/03/28 08:29:36;;;;;;;9.60;5.70;;;;;;;1.99;100.00;98846.73;109603;1250;65255;-68
2023/03/28 08:32:05;;;;;;;8.60;4.70;;;;;;;1.86;100.00;98856.46;109648;1250;61101;-68
2023/03/28 08:34:31;;;;;;;4.70;3.80;;;;;;;1.74;100.00;98865.79;109414;1250;65140;-68
2023/03/28 08:36:58;;;;;;;5.80;4.60;;;;;;;1.64;100.00;98868.91;109411;1251;58232;-69
2023/03/28 08:39:26;;;;;;;6.10;5.50;;;;;;;1.63;100.00;98875.09;109604;1251;58213;-69
2023/03/28 08:41:58;;;;;;;5.20;3.70;;;;;;;1.75;100.00;98880.83;109602;1250;65340;-68
2023/03/28 08:44:55;;;;;;;5.40;3.80;;;;;;;1.79;100.00;98883.86;109583;1250;59850;-70
2023/03/28 08:47:38;;;;;;;5.80;4.30;;;;;;;1.77;100.00;98890.20;109568;1253;64728;-68
2023/03/28 08:50:14;;;;;;;3.90;2.40;;;;;;;1.87;99.88;98895.14;109543;1252;58240;-68
2023/03/28 08:52:42;;;;;;;3.40;2.10;;;;;;;2.01;99.54;98894.48;109315;1253;58298;-68
2023/03/28 08:55:47;;;;;;;4.40;2.50;;;;;;;2.26;98.44;98891.18;109591;1252;65876;-68
2023/03/28 08:58:22;;;;;;;2.50;1.80;;;;;;;2.68;93.80;98892.98;109512;1252;60949;-69
2023/03/28 09:00:50;;;;;;;4.70;3.20;;;;;;;3.02;92.42;98895.45;109156;1253;65307;-69
2023/03/28 09:03:20;;;;;;;5.60;4.40;;;;;;;3.41;95.07;98898.13;109515;1253;58151;-69
2023/03/28 09:06:02;;;;;;;5.10;4.40;;;;;;;3.52;95.03;98901.05;109553;1253;58239;-69
2023/03/28 09:08:50;;;;;;;3.30;3.00;;;;;;;3.23;93.73;98909.20;109540;1252;66157;-69
2023/03/28 09:11:47;;;;;;;4.40;3.90;;;;;;;2.86;92.66;98919.38;109560;1253;61204;-69
2023/03/28 09:14:37;;;;;;;4.80;3.80;;;;;;;2.65;93.96;98922.59;109344;1254;63772;-69
2023/03/28 09:17:16;;;;;;;5.10;4.10;;;;;;;2.68;95.10;98932.33;109479;1252;58272;-69
2023/03/28 09:19:46;;;;;;;4.60;4.00;;;;;;;2.70;95.13;98929.59;109502;1252;58274;-69
2023/03/28 09:22:20;;;;;;;7.10;5.00;;;;;;;2.63;95.14;98935.80;109427;1253;145696;-69
2023/03/28 09:25:15;;;;;;;4.60;4.20;;;;;;;2.48;95.15;98935.98;109544;1252;60717;-69
2023/03/28 09:27:55;;;;;;;4.40;4.00;;;;;;;2.29;94.90;98941.20;109439;1253;64158;-69
2023/03/28 09:30:25;;;;;;;5.70;4.10;;;;;;;2.16;95.77;98955.30;109322;1254;58234;-69
2023/03/28 09:32:59;;;;;;;3.70;2.80;;;;;;;2.09;95.75;98951.17;109554;1252;58121;-70
2023/03/28 09:35:29;;;;;;;4.70;4.10;;;;;;;2.25;96.82;98957.11;109500;1251;65956;-69
2023/03/28 09:38:01;;;;;;;;;;;;;;;2.43;97.90;98965.64;109525;1252;59982;-69
2023/03/28 09:40:30;;;;;;;7.90;6.70;;;;;;;2.34;99.49;98961.39;109168;1254;65203;-69
2023/03/28 09:43:21;;;;;;;8.90;7.40;;;;;;;2.18;100.00;98959.11;109474;1252;58159;-69
2023/03/28 09:46:02;;;;;;;7.80;4.60;;;;;;;2.21;100.00;98960.95;109581;1252;58201;-69
2023/03/28 09:48:35;;;;;;;4.00;3.50;;;;;;;2.32;100.00;98953.39;109526;1253;66509;-69
2023/03/28 09:51:03;;;;;;;3.60;3.30;;;;;;;2.48;99.62;98949.48;109483;1252;61424;-69
2023/03/28 09:53:36;;;;;;;5.20;3.60;;;;;;;2.66;96.22;98949.58;109495;1253;64030;-69
2023/03/28 09:56:10;;;;;;;4.40;3.20;;;;;;;2.85;93.23;98952.92;109579;1254;58187;-69
2023/03/28 09:58:48;;;;;;;4.60;3.70;;;;;;;3.06;90.37;98948.10;109556;1252;58325;-69
2023/03/28 10:01:40;;;;;;;3.40;2.80;;;;;;;3.43;88.85;98945.30;109159;1252;64114;-69
2023/03/28 10:04:13;;;;;;;4.40;2.70;;;;;;;3.91;87.43;98939.35;108953;1259;59838;-69
2023/03/28 10:06:41;;;;;;;4.10;2.10;;;;;;;4.35;87.07;98939.13;108910;1259;64779;-69
2023/03/28 10:09:15;;;;;;;5.20;2.20;;;;;;;4.67;80.13;98932.81;108911;1259;58263;-69
2023/03/28 10:12:03;;;;;;;4.50;1.90;;;;;;;4.67;77.38;98941.80;108965;1259;58305;-69
2023/03/28 10:14:30;;;;;;;2.00;1.50;;;;;;;4.58;75.48;98947.80;108767;1259;65909;-69
2023/03/28 10:17:05;;;;;;;2.20;1.80;;;;;;;4.38;71.67;98952.70;108883;1259;58542;-69
2023/03/28 10:19:36;;;;;;;2.60;2.20;;;;;;;4.26;73.11;98959.71;108936;1259;64864;-69
2023/03/28 10:22:06;;;;;;;1.80;1.60;;;;;;;4.24;72.83;98971.23;108921;1259;58142;-69
2023/03/28 10:24:33;;;;;;;4.00;2.50;;;;;;;4.25;71.26;98973.66;108942;1262;58261;-69
2023/03/28 10:27:16;;;;;;;3.90;2.50;;;;;;;4.27;70.26;98971.98;108971;1259;65935;-70
2023/03/28 10:29:45;;;;;;;3.60;2.20;;;;;;;4.17;70.29;98970.13;108958;1259;60696;-69
2023/03/28 10:32:22;;;;;;;5.20;2.60;;;;;;;3.97;70.36;98978.11;108955;1259;64758;-69
2023/03/28 10:35:15;;;;;;;8.30;4.20;;;;;;;3.86;72.65;98982.79;108778;1259;58165;-69
2023/03/28 10:37:45;;;;;;;2.90;2.60;;;;;;;3.74;74.49;98989.95;108931;1259;58447;-69
2023/03/28 10:40:18;;;;;;;;;;;;;;;3.54;74.67;98986.89;108967;1259;66042;-69
2023/03/28 10:42:48;;;;;;;3.10;2.40;;;;;;;3.50;75.35;98989.13;109515;1251;60825;-69
2023/03/28 10:45:23;;;;;;;6.30;3.90;;;;;;;3.74;76.06;98990.84;109537;1253;70794;-69
2023/03/28 10:47:52;;;;;;;6.40;3.50;;;;;;;4.01;75.01;98987.33;109525;1252;58187;-68
2023/03/28 10:50:25;;;;;;;3.30;2.20;;;;;;;4.12;72.18;98983.33;109576;1252;58256;-69
2023/03/28 10:53:30;;;;;;;4.80;3.40;;;;;;;4.10;71.57;98997.30;109532;1252;64902;-69
2023/03/28 10:56:19;;;;;;;4.50;2.40;;;;;;;3.97;71.73;99005.56;109519;1253;61246;-68
2023/03/28 10:58:50;;;;;;;2.80;2.00;;;;;;;3.81;71.78;99019.04;109503;1253;63688;-71
2023/03/28 11:01:23;;;;;;;4.00;2.40;;;;;;;3.52;72.94;99023.48;109543;1252;58120;-69
2023/03/28 11:04:02;;;;;;;9.00;3.80;;;;;;;3.44;75.11;99022.88;109527;1253;58168;-70
2023/03/28 11:06:42;;;;;;;5.20;3.00;;;;;;;3.57;74.86;99019.07;109561;1251;66500;-70
2023/03/28 11:09:38;;;;;;;;;;;;;;;3.69;72.15;99009.66;109304;1253;60186;-69
2023/03/28 11:12:05;;;;;;;5.20;2.60;;;;;;;3.79;69.90;99009.28;108919;1259;64742;-70
2023/03/28 11:14:38;;;;;;;2.10;1.30;;;;;;;3.84;65.11;99007.13;108927;1259;58144;-70
2023/03/28 11:17:27;;;;;;;4.30;2.10;;;;;;;3.85;61.20;99002.71;108945;1259;58128;-69
2023/03/28 11:20:05;;;;;;;4.10;2.40;;;;;;;3.86;60.43;99003.70;108961;1259;64880;-70
2023/03/28 11:22:45;;;;;;;1.90;1.20;;;;;;;3.97;60.64;99001.35;108791;1259;59066;-70
2023/03/28 11:25:34;;;;;;;1.80;1.20;;;;;;;4.13;60.75;99004.20;108926;1259;64293;-69
2023/03/28 11:28:51;;;;;;;3.40;2.00;;;;;;;4.30;61.14;98995.77;108914;1259;58368;-70
2023/03/28 11:31:24;;;;;;;6.70;2.60;;;;;;;4.26;58.92;99000.52;108518;1267;58106;-70
2023/03/28 11:34:05;;;;;;;3.70;2.10;;;;;;;4.42;59.53;99001.44;108407;1267;65974;-70
2023/03/28 11:36:36;;;;;;;3.20;1.70;;;;;;;4.82;59.82;98998.48;108509;1267;60884;-70
2023/03/28 11:39:30;;;;;;;3.40;2.60;;;;;;;4.97;59.59;98999.79;108495;1267;64196;-69